Time;durP1;ratioP1;P1;durP2;ratioP2;P2;SDS_P1;SDS_P2;PMS_P1;PMS_P2;Temp;Humidity;BMP_temperature;BMP_pressure;BME280_temperature;BME280_humidity;BME280_pressure;Samples;Min_cycle;Max_cycle;Signal;HPM_P1;HPM_P2
2022/01/23 00:01:55;;;;;;;;;63.60;53.20;;;;;;;;5267256;28;8798;-77
2022/01/23 00:04:27;;;;;;;;;24.40;19.40;;;;;;;;5233366;28;8775;-75
2022/01/23 00:07:03;;;;;;;;;14.00;14.00;;;;;;;;5233257;28;8782;-75
2022/01/23 00:09:35;;;;;;;;;6.80;5.00;;;;;;;;5233502;28;8802;-76
2022/01/23 00:12:14;;;;;;;;;25.80;25.40;;;;;;;;5232939;28;8859;-74
2022/01/23 00:17:36;;;;;;;;;20.20;20.20;;;;;;;;5233025;28;8770;-75
2022/01/23 00:20:09;;;;;;;;;20.20;20.20;;;;;;;;5216972;28;8897;-77
2022/01/23 00:22:55;;;;;;;;;15.80;15.00;;;;;;;;5216031;28;8799;-77
2022/01/23 00:31:28;;;;;;;;;10.00;9.40;;;;;;;;5170390;28;8800;-76
2022/01/23 00:34:00;;;;;;;;;9.60;9.60;;;;;;;;5170208;28;8789;-75
2022/01/23 00:36:31;;;;;;;;;0.00;0.00;;;;;;;;5189799;28;8771;-75
2022/01/23 00:39:03;;;;;;;;;11.40;11.00;;;;;;;;5250452;28;8802;-73
2022/01/23 00:41:34;;;;;;;;;7.40;7.40;;;;;;;;5234321;28;8802;-73
2022/01/23 00:44:07;;;;;;;;;15.80;13.40;;;;;;;;5218035;28;8778;-74
2022/01/23 00:46:40;;;;;;;;;15.00;15.00;;;;;;;;5216442;28;9470;-76
2022/01/23 00:52:01;;;;;;;;;12.00;12.00;;;;;;;;5249245;28;8778;-74
2022/01/23 00:54:33;;;;;;;;;13.00;13.00;;;;;;;;5267680;28;8779;-75
2022/01/23 00:57:05;;;;;;;;;26.00;23.20;;;;;;;;5232157;28;8916;-75
2022/01/23 00:59:36;;;;;;;;;26.00;24.20;;;;;;;;5215957;28;8782;-75
2022/01/23 01:02:07;;;;;;;;;40.20;40.20;;;;;;;;5249118;28;8870;-78
2022/01/23 01:04:39;;;;;;;;;21.80;21.00;;;;;;;;5232628;28;8840;-78
2022/01/23 01:07:11;;;;;;;;;15.40;15.40;;;;;;;;5215851;28;8774;-77
2022/01/23 01:09:48;;;;;;;;;35.00;33.20;;;;;;;;5248959;28;8785;-74
2022/01/23 01:12:24;;;;;;;;;12.00;12.00;;;;;;;;5216445;28;8775;-76
2022/01/23 01:15:22;;;;;;;;;9.20;8.60;;;;;;;;5216548;28;8782;-76
2022/01/23 01:31:52;;;;;;;;;32.60;32.60;;;;;;;;5232470;28;8793;-74
2022/01/23 01:34:49;;;;;;;;;10.40;10.40;;;;;;;;5251841;28;9676;-75
2022/01/23 01:37:20;;;;;;;;;13.00;12.80;;;;;;;;5233954;28;8790;-78
2022/01/23 01:39:53;;;;;;;;;4.40;4.40;;;;;;;;5219942;28;8790;-78
2022/01/23 01:42:26;;;;;;;;;15.00;15.00;;;;;;;;5221450;28;9506;-79
2022/01/23 01:45:24;;;;;;;;;12.00;10.00;;;;;;;;5241352;28;8897;-81
2022/01/23 01:48:18;;;;;;;;;12.80;12.80;;;;;;;;5241062;28;9489;-80
2022/01/23 01:50:54;;;;;;;;;15.20;15.00;;;;;;;;5254893;28;8779;-80
2022/01/23 01:53:26;;;;;;;;;22.00;21.80;;;;;;;;5254827;28;8898;-79
2022/01/23 01:55:58;;;;;;;;;15.80;15.00;;;;;;;;5221529;28;8769;-78
2022/01/23 02:10:20;;;;;;;;;13.40;9.20;;;;;;;;5235851;28;8859;-72
2022/01/23 02:13:08;;;;;;;;;7.60;7.60;;;;;;;;5235223;28;8793;-72
2022/01/23 02:50:44;;;;;;;;;23.60;20.60;;;;;;;;5239864;28;8802;-72
2022/01/23 02:53:40;;;;;;;;;35.40;34.00;;;;;;;;5219460;28;8805;-75
2022/01/23 02:56:20;;;;;;;;;32.00;28.80;;;;;;;;5235673;28;9630;-77
2022/01/23 02:58:59;;;;;;;;;30.40;28.80;;;;;;;;5235327;28;8786;-76
2022/01/23 03:01:34;;;;;;;;;31.60;30.00;;;;;;;;5251522;28;8782;-76
2022/01/23 03:04:40;;;;;;;;;31.00;27.80;;;;;;;;5255763;28;8786;-76
2022/01/23 03:07:38;;;;;;;;;26.40;24.40;;;;;;;;5235943;28;8771;-74
2022/01/23 03:10:18;;;;;;;;;27.60;27.60;;;;;;;;5235009;28;8794;-75
2022/01/23 03:29:23;;;;;;;;;20.80;20.80;;;;;;;;5234234;28;9550;-77
2022/01/23 03:34:27;;;;;;;;;24.60;24.60;;;;;;;;5250224;28;8803;-72
2022/01/23 03:36:58;;;;;;;;;22.40;22.40;;;;;;;;5250618;28;8767;-73
2022/01/23 03:39:29;;;;;;;;;28.40;26.00;;;;;;;;5199423;28;8814;-73
2022/01/23 03:42:00;;;;;;;;;24.00;22.80;;;;;;;;5212835;28;9586;-73
2022/01/23 03:44:36;;;;;;;;;31.80;30.80;;;;;;;;5229355;28;8905;-72
2022/01/23 03:47:52;;;;;;;;;38.40;34.80;;;;;;;;5215219;28;8802;-73
2022/01/23 03:50:23;;;;;;;;;33.00;28.40;;;;;;;;5212692;28;8784;-73
2022/01/23 03:52:59;;;;;;;;;41.40;39.20;;;;;;;;5229192;28;8931;-74
2022/01/23 03:55:30;;;;;;;;;30.60;30.40;;;;;;;;5229539;28;8769;-75
2022/01/23 03:58:02;;;;;;;;;25.20;24.00;;;;;;;;5246473;28;8785;-75
2022/01/23 04:00:34;;;;;;;;;41.40;41.40;;;;;;;;5228223;28;8780;-74
2022/01/23 04:03:07;;;;;;;;;70.50;57.00;;;;;;;;5212638;28;8783;-74
2022/01/23 04:05:39;;;;;;;;;47.00;43.60;;;;;;;;5212699;28;8786;-79
2022/01/23 04:08:10;;;;;;;;;41.20;39.40;;;;;;;;5195765;28;8762;-76
2022/01/23 04:10:43;;;;;;;;;25.00;24.20;;;;;;;;5196416;28;8774;-76
2022/01/23 04:13:27;;;;;;;;;30.40;27.60;;;;;;;;5212597;28;8763;-75
2022/01/23 04:16:16;;;;;;;;;21.00;19.20;;;;;;;;5196212;28;8774;-74
2022/01/23 04:31:42;;;;;;;;;20.80;20.60;;;;;;;;5212258;28;8766;-74
2022/01/23 04:48:13;;;;;;;;;19.80;19.40;;;;;;;;5232538;28;8794;-74
2022/01/23 05:01:28;;;;;;;;;16.40;15.80;;;;;;;;5232800;28;8805;-73
2022/01/23 05:04:21;;;;;;;;;14.20;14.20;;;;;;;;5249394;28;8786;-72
2022/01/23 05:07:28;;;;;;;;;6.60;6.60;;;;;;;;5205249;28;8829;-73
2022/01/23 05:14:49;;;;;;;;;16.40;16.00;;;;;;;;5271387;28;8722;-73
2022/01/23 05:17:21;;;;;;;;;13.20;12.20;;;;;;;;5252941;28;8790;-72
2022/01/23 05:19:52;;;;;;;;;24.20;24.20;;;;;;;;5236771;28;9493;-72
2022/01/23 05:22:47;;;;;;;;;21.60;21.60;;;;;;;;5236035;28;8798;-72
2022/01/23 05:25:23;;;;;;;;;21.80;21.00;;;;;;;;5265967;28;8857;-73
2022/01/23 05:27:54;;;;;;;;;31.20;28.60;;;;;;;;5240406;28;8773;-69
2022/01/23 05:30:28;;;;;;;;;18.60;18.40;;;;;;;;5238099;28;8808;-71
2022/01/23 05:33:00;;;;;;;;;21.00;21.00;;;;;;;;5253621;28;8856;-72
2022/01/23 05:40:23;;;;;;;;;20.60;19.00;;;;;;;;5292113;28;8776;-72
2022/01/23 05:42:57;;;;;;;;;26.20;24.80;;;;;;;;5253261;28;8810;-72
2022/01/23 05:49:52;;;;;;;;;32.40;30.40;;;;;;;;5270289;28;9405;-73
2022/01/23 05:52:56;;;;;;;;;23.20;22.80;;;;;;;;5251731;28;8786;-73
2022/01/23 05:55:47;;;;;;;;;22.40;19.80;;;;;;;;5221918;28;8782;-73
2022/01/23 06:03:04;;;;;;;;;29.40;28.80;;;;;;;;5269828;28;8774;-75
2022/01/23 06:05:57;;;;;;;;;31.40;30.40;;;;;;;;5235417;28;8963;-73
2022/01/23 06:08:32;;;;;;;;;28.20;24.60;;;;;;;;5268644;28;8810;-71
2022/01/23 06:11:04;;;;;;;;;35.40;33.80;;;;;;;;5251953;28;8892;-72
2022/01/23 06:13:41;;;;;;;;;32.60;31.40;;;;;;;;5236394;28;8787;-73
2022/01/23 06:16:15;;;;;;;;;30.00;27.80;;;;;;;;5270092;28;8802;-75
2022/01/23 06:18:54;;;;;;;;;36.00;35.00;;;;;;;;5251741;28;8782;-73
2022/01/23 06:21:26;;;;;;;;;25.20;23.00;;;;;;;;5251873;28;8901;-73
2022/01/23 06:24:27;;;;;;;;;17.00;17.00;;;;;;;;5237133;28;9500;-69
2022/01/23 06:27:15;;;;;;;;;45.80;43.00;;;;;;;;5251941;28;8774;-73
2022/01/23 06:29:47;;;;;;;;;32.20;32.20;;;;;;;;5235039;28;9485;-72
2022/01/23 06:32:38;;;;;;;;;32.20;30.60;;;;;;;;5269552;28;8782;-73
2022/01/23 06:35:09;;;;;;;;;33.40;33.00;;;;;;;;5251273;28;8790;-72
2022/01/23 06:37:40;;;;;;;;;11.00;9.20;;;;;;;;5251060;28;8803;-72
2022/01/23 06:40:12;;;;;;;;;20.60;20.60;;;;;;;;5251630;28;8750;-72
2022/01/23 06:43:02;;;;;;;;;24.40;24.40;;;;;;;;5254273;28;8791;-72
2022/01/23 06:45:46;;;;;;;;;36.80;36.20;;;;;;;;5234683;28;8883;-72
2022/01/23 06:48:18;;;;;;;;;33.40;31.80;;;;;;;;5251540;28;9521;-73
2022/01/23 06:50:50;;;;;;;;;27.60;26.40;;;;;;;;5251583;28;8774;-72
2022/01/23 06:53:24;;;;;;;;;30.00;29.40;;;;;;;;5234512;28;8775;-72
2022/01/23 06:55:56;;;;;;;;;30.40;27.40;;;;;;;;5218106;28;8847;-73
2022/01/23 06:58:28;;;;;;;;;30.60;30.60;;;;;;;;5268583;28;8791;-73
2022/01/23 07:00:59;;;;;;;;;25.00;25.00;;;;;;;;5250827;28;9570;-73
2022/01/23 07:03:48;;;;;;;;;29.20;29.20;;;;;;;;5250744;28;8803;-73
2022/01/23 07:06:51;;;;;;;;;23.40;23.40;;;;;;;;5233385;28;8869;-72
2022/01/23 07:09:41;;;;;;;;;29.60;29.60;;;;;;;;5269011;28;8775;-72
2022/01/23 07:12:27;;;;;;;;;35.60;32.80;;;;;;;;5253422;28;8813;-72
2022/01/23 07:15:28;;;;;;;;;24.60;24.60;;;;;;;;5238399;28;8922;-73
2022/01/23 07:18:18;;;;;;;;;21.40;21.40;;;;;;;;5269328;28;8767;-73
2022/01/23 07:21:10;;;;;;;;;23.20;23.20;;;;;;;;5250226;28;8811;-73
2022/01/23 07:23:50;;;;;;;;;26.20;25.80;;;;;;;;5250142;28;8871;-73
2022/01/23 07:26:24;;;;;;;;;27.80;27.00;;;;;;;;5250481;28;8866;-73
2022/01/23 07:29:01;;;;;;;;;24.20;21.60;;;;;;;;5250505;28;8778;-73
2022/01/23 07:34:28;;;;;;;;;27.40;27.40;;;;;;;;5250474;28;8801;-73
2022/01/23 07:37:02;;;;;;;;;26.60;26.60;;;;;;;;5234287;28;8775;-73
2022/01/23 07:39:54;;;;;;;;;40.80;39.20;;;;;;;;5249587;28;8811;-73
2022/01/23 07:42:34;;;;;;;;;39.20;36.40;;;;;;;;5233216;28;8949;-72
2022/01/23 07:45:06;;;;;;;;;34.25;32.50;;;;;;;;5267106;28;8901;-73
2022/01/23 07:48:15;;;;;;;;;32.60;32.60;;;;;;;;5186523;28;8809;-72
2022/01/23 07:51:03;;;;;;;;;34.60;34.60;;;;;;;;5170196;28;8789;-73
2022/01/23 07:53:54;;;;;;;;;19.00;18.00;;;;;;;;5234551;28;8802;-73
2022/01/23 08:01:01;;;;;;;;;29.60;29.60;;;;;;;;5267891;28;8767;-73
2022/01/23 08:03:32;;;;;;;;;47.00;44.80;;;;;;;;5249383;28;8802;-73
2022/01/23 08:06:13;;;;;;;;;29.80;29.80;;;;;;;;5218052;28;8783;-74
2022/01/23 08:08:44;;;;;;;;;29.80;29.20;;;;;;;;5267390;28;8786;-72
2022/01/23 08:11:22;;;;;;;;;32.40;30.20;;;;;;;;5266252;28;8767;-73
2022/01/23 08:13:53;;;;;;;;;30.00;29.60;;;;;;;;5232777;28;8843;-72
2022/01/23 08:16:24;;;;;;;;;20.20;20.20;;;;;;;;5232881;28;8779;-73
2022/01/23 08:18:56;;;;;;;;;22.80;22.60;;;;;;;;5233140;28;8843;-72
2022/01/23 08:21:30;;;;;;;;;29.20;29.20;;;;;;;;5267197;28;8783;-73
2022/01/23 08:24:01;;;;;;;;;26.50;26.50;;;;;;;;5232651;28;8821;-74
2022/01/23 08:26:32;;;;;;;;;23.75;23.75;;;;;;;;5266567;28;8774;-73
2022/01/23 08:29:03;;;;;;;;;20.50;19.25;;;;;;;;5249482;28;8791;-74
2022/01/23 08:31:34;;;;;;;;;26.60;25.40;;;;;;;;5249267;28;11456;-73
2022/01/23 08:34:05;;;;;;;;;27.75;27.75;;;;;;;;5249688;28;9346;-72
2022/01/23 08:36:36;;;;;;;;;12.00;10.60;;;;;;;;5249298;28;8909;-74
2022/01/23 08:39:07;;;;;;;;;29.00;29.00;;;;;;;;5232875;28;8829;-73
2022/01/23 08:41:50;;;;;;;;;23.40;23.40;;;;;;;;5232662;28;9786;-73
2022/01/23 08:44:26;;;;;;;;;16.00;16.00;;;;;;;;5216157;28;8855;-74
2022/01/23 08:46:57;;;;;;;;;8.80;8.00;;;;;;;;5249099;28;8799;-73
2022/01/23 08:49:29;;;;;;;;;18.80;18.80;;;;;;;;5215708;28;8771;-74
2022/01/23 08:52:00;;;;;;;;;13.40;13.40;;;;;;;;5266987;28;8814;-74
2022/01/23 08:54:31;;;;;;;;;17.20;16.80;;;;;;;;5249628;28;8839;-74
2022/01/23 08:57:02;;;;;;;;;18.60;17.40;;;;;;;;5265886;28;8786;-73
2022/01/23 08:59:33;;;;;;;;;17.40;16.20;;;;;;;;5265449;28;8795;-74
2022/01/23 09:02:04;;;;;;;;;18.25;18.25;;;;;;;;5269483;28;8800;-73
2022/01/23 09:04:35;;;;;;;;;8.60;7.00;;;;;;;;5269921;28;8792;-73
2022/01/23 09:07:06;;;;;;;;;20.20;20.20;;;;;;;;5253304;28;8772;-73
2022/01/23 09:09:39;;;;;;;;;22.25;22.25;;;;;;;;5236513;28;8811;-75
2022/01/23 09:15:00;;;;;;;;;27.40;25.20;;;;;;;;5253326;28;8815;-70
2022/01/23 09:17:32;;;;;;;;;24.00;22.50;;;;;;;;5253619;28;8785;-72
2022/01/23 09:20:03;;;;;;;;;25.40;24.00;;;;;;;;5269297;28;8776;-73
2022/01/23 09:22:53;;;;;;;;;15.80;15.80;;;;;;;;5272842;28;8884;-73
2022/01/23 09:25:24;;;;;;;;;21.00;19.60;;;;;;;;5236267;28;9475;-72
2022/01/23 09:28:14;;;;;;;;;22.00;21.20;;;;;;;;5270030;28;8788;-71
2022/01/23 09:30:49;;;;;;;;;21.80;20.60;;;;;;;;5236044;28;9479;-71
2022/01/23 09:33:20;;;;;;;;;24.80;24.20;;;;;;;;5269633;28;8815;-71
2022/01/23 09:36:10;;;;;;;;;34.20;33.80;;;;;;;;5272405;28;8837;-71
2022/01/23 09:38:41;;;;;;;;;28.60;28.40;;;;;;;;5235671;28;8820;-70
2022/01/23 09:41:15;;;;;;;;;19.60;19.20;;;;;;;;5269969;28;8777;-71
2022/01/23 09:44:05;;;;;;;;;24.80;24.60;;;;;;;;5274386;28;8793;-72
2022/01/23 09:46:36;;;;;;;;;21.80;21.80;;;;;;;;5269876;28;8919;-68
2022/01/23 09:49:08;;;;;;;;;31.20;30.00;;;;;;;;5252464;28;8768;-75
2022/01/23 09:51:43;;;;;;;;;26.40;26.00;;;;;;;;5236120;28;9618;-73
2022/01/23 09:54:15;;;;;;;;;18.00;18.00;;;;;;;;5235943;28;8765;-75
2022/01/23 09:56:46;;;;;;;;;27.40;25.60;;;;;;;;5235830;28;8781;-74
2022/01/23 09:59:18;;;;;;;;;64.60;53.60;;;;;;;;5255326;28;8780;-74
2022/01/23 10:01:55;;;;;;;;;35.40;35.20;;;;;;;;5256329;28;8845;-73
2022/01/23 10:04:45;;;;;;;;;31.00;31.00;;;;;;;;5258988;28;8764;-73
2022/01/23 10:07:38;;;;;;;;;60.00;51.60;;;;;;;;5258803;28;8793;-74
2022/01/23 10:10:12;;;;;;;;;47.40;44.40;;;;;;;;5239442;28;8811;-74
2022/01/23 10:12:45;;;;;;;;;53.20;48.00;;;;;;;;5272720;28;8792;-75
2022/01/23 10:15:17;;;;;;;;;41.40;41.20;;;;;;;;5256608;28;8781;-77
2022/01/23 10:17:49;;;;;;;;;28.40;28.40;;;;;;;;5256292;28;8781;-75
2022/01/23 10:20:21;;;;;;;;;19.20;19.20;;;;;;;;5239398;28;8822;-75
2022/01/23 10:22:54;;;;;;;;;20.20;19.60;;;;;;;;5255556;28;8923;-74
2022/01/23 10:25:26;;;;;;;;;17.20;16.00;;;;;;;;5238873;28;8776;-75
2022/01/23 10:28:08;;;;;;;;;22.60;22.60;;;;;;;;5239843;28;8764;-75
2022/01/23 10:30:42;;;;;;;;;33.60;31.20;;;;;;;;5255307;28;8919;-75
2022/01/23 10:33:20;;;;;;;;;24.80;23.60;;;;;;;;5238589;28;8804;-74
2022/01/23 10:36:11;;;;;;;;;26.80;25.20;;;;;;;;5258280;28;8865;-74
2022/01/23 10:39:02;;;;;;;;;11.40;11.40;;;;;;;;5255245;28;8831;-74
2022/01/23 10:49:58;;;;;;;;;14.60;14.60;;;;;;;;5272088;28;8799;-72
2022/01/23 10:56:53;;;;;;;;;38.60;38.60;;;;;;;;5289992;28;8721;-75
2022/01/23 10:59:24;;;;;;;;;40.60;36.60;;;;;;;;5238625;28;8780;-76
2022/01/23 11:01:59;;;;;;;;;18.20;18.20;;;;;;;;5237565;28;8780;-75
2022/01/23 11:05:19;;;;;;;;;21.60;20.20;;;;;;;;5273129;28;8840;-74
2022/01/23 11:08:21;;;;;;;;;18.80;17.60;;;;;;;;5263875;28;8785;-76
2022/01/23 11:18:07;;;;;;;;;27.40;26.00;;;;;;;;5271569;28;8915;-75
2022/01/23 11:20:43;;;;;;;;;34.20;34.20;;;;;;;;5271410;28;8894;-76
2022/01/23 11:23:24;;;;;;;;;35.00;33.80;;;;;;;;5270556;28;8817;-76
2022/01/23 11:25:55;;;;;;;;;48.60;45.60;;;;;;;;5254727;28;8780;-76
2022/01/23 11:32:49;;;;;;;;;53.20;48.80;;;;;;;;5288293;28;11149;-71
2022/01/23 11:35:24;;;;;;;;;36.40;33.60;;;;;;;;5270815;28;8780;-77
2022/01/23 11:37:57;;;;;;;;;22.80;21.60;;;;;;;;5270299;28;8832;-76
2022/01/23 11:56:42;;;;;;;;;21.20;21.20;;;;;;;;5288636;28;8776;-75
2022/01/23 11:59:42;;;;;;;;;27.80;25.60;;;;;;;;5239549;28;8853;-77
2022/01/23 12:02:20;;;;;;;;;28.40;28.40;;;;;;;;5288157;28;8871;-75
2022/01/23 12:05:10;;;;;;;;;12.20;10.80;;;;;;;;5254330;28;8802;-76
2022/01/23 12:07:42;;;;;;;;;38.00;36.40;;;;;;;;5237281;28;8792;-77
2022/01/23 12:17:18;;;;;;;;;63.00;54.00;;;;;;;;5252014;28;8869;-77
2022/01/23 12:19:51;;;;;;;;;57.40;48.20;;;;;;;;5269854;28;8807;-76
2022/01/23 12:22:25;;;;;;;;;31.40;31.40;;;;;;;;5248043;28;9533;-76
2022/01/23 12:24:57;;;;;;;;;30.60;30.40;;;;;;;;5249189;28;8751;-76
2022/01/23 12:27:46;;;;;;;;;42.80;41.60;;;;;;;;5252363;28;8746;-77
2022/01/23 12:30:20;;;;;;;;;62.20;52.00;;;;;;;;5249634;28;8786;-77
2022/01/23 12:33:15;;;;;;;;;33.80;30.80;;;;;;;;5231676;28;8798;-76
2022/01/23 12:35:48;;;;;;;;;30.60;30.00;;;;;;;;5266162;28;8849;-76
2022/01/23 12:38:26;;;;;;;;;35.80;30.40;;;;;;;;5253322;28;8936;-75
2022/01/23 12:41:13;;;;;;;;;26.60;26.20;;;;;;;;5253561;28;8757;-76
2022/01/23 12:43:44;;;;;;;;;35.60;30.80;;;;;;;;5253153;28;8792;-77
2022/01/23 12:46:23;;;;;;;;;33.20;31.80;;;;;;;;5236249;28;8779;-74
2022/01/23 12:48:55;;;;;;;;;41.20;38.60;;;;;;;;5236494;28;9536;-78
2022/01/23 12:56:03;;;;;;;;;42.00;40.40;;;;;;;;5288145;28;9419;-76
2022/01/23 12:58:34;;;;;;;;;168.67;131.00;;;;;;;;5270344;28;8891;-69
2022/01/23 13:01:10;;;;;;;;;32.20;32.20;;;;;;;;5252701;28;9105;-72
2022/01/23 13:03:43;;;;;;;;;28.00;26.80;;;;;;;;5252809;28;8950;-72
2022/01/23 13:06:14;;;;;;;;;17.00;17.00;;;;;;;;5236510;28;8795;-73
2022/01/23 13:08:52;;;;;;;;;21.80;21.20;;;;;;;;5288208;28;8765;-73
2022/01/23 13:11:53;;;;;;;;;19.00;18.40;;;;;;;;5270063;28;8886;-73
2022/01/23 13:14:14;;;;;;;;;23.00;23.00;;;;;;;;5269077;28;8795;-73
2022/01/23 13:17:26;;;;;;;;;21.25;20.00;;;;;;;;5252733;28;8781;-73
2022/01/23 13:30:51;;;;;;;;;36.00;35.20;;;;;;;;5269457;28;8857;-72
2022/01/23 13:33:25;;;;;;;;;37.60;37.60;;;;;;;;5256248;28;8769;-74
2022/01/23 13:35:58;;;;;;;;;39.40;38.20;;;;;;;;5273422;28;8787;-72
2022/01/23 13:38:33;;;;;;;;;48.40;43.00;;;;;;;;5273406;28;8808;-73
2022/01/23 13:41:25;;;;;;;;;48.00;45.40;;;;;;;;5274000;28;8781;-73
2022/01/23 13:58:23;;;;;;;;;42.80;40.60;;;;;;;;5273810;28;8871;-72
2022/01/23 14:00:56;;;;;;;;;35.60;34.20;;;;;;;;5273010;28;8806;-73
2022/01/23 14:03:27;;;;;;;;;22.60;19.60;;;;;;;;5239489;28;8788;-72
2022/01/23 14:05:58;;;;;;;;;32.80;31.40;;;;;;;;5255773;28;9548;-72
2022/01/23 14:08:29;;;;;;;;;21.00;21.00;;;;;;;;5272864;28;8788;-72
2022/01/23 14:11:00;;;;;;;;;18.00;17.50;;;;;;;;5273004;28;11398;-74
2022/01/23 14:13:31;;;;;;;;;25.80;25.00;;;;;;;;5256089;28;8823;-72
2022/01/23 14:16:02;;;;;;;;;30.60;27.40;;;;;;;;5291679;28;8799;-72
2022/01/23 14:18:33;;;;;;;;;24.60;23.60;;;;;;;;5256253;28;9503;-72
2022/01/23 14:21:06;;;;;;;;;39.40;34.40;;;;;;;;5255694;28;8789;-72
2022/01/23 14:23:37;;;;;;;;;29.40;29.20;;;;;;;;5255913;28;8832;-73
2022/01/23 14:26:10;;;;;;;;;30.60;28.40;;;;;;;;5291511;28;8785;-73
2022/01/23 14:28:44;;;;;;;;;38.20;37.40;;;;;;;;5255535;28;8761;-74
2022/01/23 14:31:21;;;;;;;;;40.20;34.60;;;;;;;;5239320;28;8784;-72
2022/01/23 14:33:57;;;;;;;;;40.80;38.20;;;;;;;;5255675;28;8753;-72
2022/01/23 14:36:30;;;;;;;;;30.40;30.40;;;;;;;;5272647;28;8783;-73
2022/01/23 14:39:22;;;;;;;;;21.40;21.40;;;;;;;;5257780;28;8804;-74
2022/01/23 14:41:55;;;;;;;;;28.40;28.20;;;;;;;;5255587;28;8761;-73
2022/01/23 14:44:27;;;;;;;;;27.40;27.40;;;;;;;;5271647;28;8780;-74
2022/01/23 14:46:58;;;;;;;;;38.20;37.40;;;;;;;;5272021;28;8777;-73
2022/01/23 14:49:31;;;;;;;;;33.60;32.40;;;;;;;;5290928;28;8768;-73
2022/01/23 14:52:03;;;;;;;;;25.80;25.80;;;;;;;;5238814;28;9491;-73
2022/01/23 14:54:34;;;;;;;;;33.40;27.60;;;;;;;;5271733;28;8895;-68
2022/01/23 14:57:07;;;;;;;;;16.40;15.80;;;;;;;;5290062;28;8781;-70
2022/01/23 14:59:38;;;;;;;;;143.75;105.00;;;;;;;;5271562;28;8768;-73
2022/01/23 15:02:10;;;;;;;;;42.80;41.00;;;;;;;;5270195;28;8824;-72
2022/01/23 15:04:45;;;;;;;;;21.40;21.40;;;;;;;;5254401;28;8795;-71
2022/01/23 15:11:40;;;;;;;;;29.40;26.80;;;;;;;;5289702;28;8736;-72
2022/01/23 15:18:35;;;;;;;;;21.40;20.00;;;;;;;;5288757;28;8713;-71
2022/01/23 15:25:30;;;;;;;;;27.00;26.20;;;;;;;;5289459;28;8732;-72
2022/01/23 15:32:24;;;;;;;;;62.80;53.60;;;;;;;;5288277;28;8756;-72
2022/01/23 15:34:55;;;;;;;;;30.25;29.75;;;;;;;;5288662;28;8796;-71
2022/01/23 15:42:01;;;;;;;;;46.00;43.60;;;;;;;;5267398;28;8767;-73
2022/01/23 15:44:32;;;;;;;;;33.80;32.80;;;;;;;;5249332;28;8782;-73
2022/01/23 15:47:05;;;;;;;;;30.80;30.00;;;;;;;;5249322;28;8794;-72
2022/01/23 15:54:06;;;;;;;;;55.20;47.60;;;;;;;;5267492;28;8731;-72
2022/01/23 15:56:56;;;;;;;;;47.60;43.80;;;;;;;;5266840;28;8766;-72
2022/01/23 15:59:27;;;;;;;;;20.80;19.40;;;;;;;;5215688;28;8787;-73
2022/01/23 16:01:58;;;;;;;;;24.00;22.20;;;;;;;;5265905;28;8767;-72
2022/01/23 16:04:33;;;;;;;;;21.20;19.00;;;;;;;;5267670;28;8779;-72
2022/01/23 16:07:22;;;;;;;;;22.40;22.40;;;;;;;;5252701;28;9485;-72
2022/01/23 16:09:53;;;;;;;;;26.60;26.60;;;;;;;;5267693;28;8791;-72
2022/01/23 16:12:24;;;;;;;;;32.40;32.40;;;;;;;;5216190;28;8766;-74
2022/01/23 16:14:55;;;;;;;;;28.00;26.60;;;;;;;;5267296;28;8775;-73
2022/01/23 16:17:26;;;;;;;;;23.75;23.75;;;;;;;;5248621;28;8767;-71
2022/01/23 16:24:22;;;;;;;;;32.00;30.20;;;;;;;;5266827;28;8766;-71
2022/01/23 16:26:54;;;;;;;;;20.60;20.60;;;;;;;;5248568;28;8808;-70
2022/01/23 16:33:48;;;;;;;;;155.50;116.50;;;;;;;;5267053;28;9525;-72
2022/01/23 16:40:42;;;;;;;;;23.60;22.00;;;;;;;;5277385;28;8780;-73
2022/01/23 16:43:14;;;;;;;;;25.20;24.40;;;;;;;;5236788;28;8799;-73
2022/01/23 16:45:45;;;;;;;;;20.60;20.40;;;;;;;;5237087;28;8780;-72
2022/01/23 16:48:16;;;;;;;;;24.00;23.25;;;;;;;;5270400;28;8877;-74
2022/01/23 16:50:47;;;;;;;;;20.00;18.50;;;;;;;;5270256;28;12071;-74
2022/01/23 16:53:18;;;;;;;;;24.00;19.00;;;;;;;;5269900;28;10930;-74
2022/01/23 16:55:56;;;;;;;;;93.20;70.60;;;;;;;;5236490;28;8780;-74
2022/01/23 16:58:28;;;;;;;;;30.80;30.00;;;;;;;;5253330;28;8797;-74
2022/01/23 17:00:59;;;;;;;;;28.80;28.00;;;;;;;;5270193;28;8777;-75
2022/01/23 17:03:30;;;;;;;;;35.80;32.20;;;;;;;;5252872;28;8828;-73
2022/01/23 17:06:01;;;;;;;;;23.25;21.75;;;;;;;;5270390;28;8796;-71
2022/01/23 17:08:33;;;;;;;;;42.75;41.50;;;;;;;;5273092;28;10959;-73
2022/01/23 17:11:04;;;;;;;;;30.20;28.80;;;;;;;;5257031;28;9247;-70
2022/01/23 17:17:58;;;;;;;;;33.80;33.20;;;;;;;;5292080;28;8724;-76
2022/01/23 17:20:47;;;;;;;;;32.40;29.80;;;;;;;;5277125;28;8792;-78
2022/01/23 17:23:21;;;;;;;;;31.00;27.20;;;;;;;;5240995;28;8804;-80
2022/01/23 17:25:53;;;;;;;;;22.80;21.80;;;;;;;;5241577;28;8849;-80
2022/01/23 17:28:24;;;;;;;;;28.80;27.40;;;;;;;;5292773;28;8781;-80
2022/01/23 17:30:55;;;;;;;;;24.80;24.80;;;;;;;;5275404;28;8789;-77
2022/01/23 17:33:29;;;;;;;;;24.00;23.60;;;;;;;;5257534;28;8788;-78
2022/01/23 17:36:18;;;;;;;;;43.00;40.00;;;;;;;;5274420;28;8765;-78
2022/01/23 17:38:49;;;;;;;;;29.00;28.20;;;;;;;;5243341;28;8902;-80
2022/01/23 17:41:20;;;;;;;;;31.80;31.00;;;;;;;;5241372;28;8808;-79
2022/01/23 17:43:51;;;;;;;;;26.40;25.00;;;;;;;;5257975;28;8931;-79
2022/01/23 17:46:25;;;;;;;;;18.60;17.40;;;;;;;;5258156;28;8800;-78
2022/01/23 17:49:09;;;;;;;;;21.00;20.60;;;;;;;;5259246;28;8772;-79
2022/01/23 17:51:40;;;;;;;;;21.80;21.80;;;;;;;;5246198;28;8883;-78
2022/01/23 17:58:47;;;;;;;;;31.20;29.80;;;;;;;;5269848;28;9497;-77
2022/01/23 18:01:19;;;;;;;;;22.60;22.60;;;;;;;;5234746;28;9476;-78
2022/01/23 18:03:50;;;;;;;;;23.60;23.20;;;;;;;;5291122;28;8800;-77
2022/01/23 18:06:23;;;;;;;;;21.80;21.80;;;;;;;;5256237;28;8784;-79
2022/01/23 18:08:56;;;;;;;;;24.20;24.00;;;;;;;;5239332;28;9544;-79
2022/01/23 18:11:27;;;;;;;;;34.00;30.20;;;;;;;;5256369;28;8786;-77
2022/01/23 18:14:02;;;;;;;;;27.00;27.00;;;;;;;;5239542;28;8777;-77
2022/01/23 18:16:34;;;;;;;;;190.25;126.50;;;;;;;;5256337;28;8760;-78
2022/01/23 18:19:05;;;;;;;;;45.60;43.00;;;;;;;;5272460;28;8794;-79
2022/01/23 18:21:36;;;;;;;;;30.80;30.80;;;;;;;;5255758;28;8765;-77
2022/01/23 18:24:09;;;;;;;;;29.20;29.20;;;;;;;;5239168;28;8808;-77
2022/01/23 18:26:42;;;;;;;;;21.80;21.00;;;;;;;;5239687;28;8764;-77
2022/01/23 18:29:14;;;;;;;;;100.60;75.60;;;;;;;;5256081;28;8776;-77
2022/01/23 18:31:45;;;;;;;;;64.80;53.00;;;;;;;;5272122;28;8788;-75
2022/01/23 18:34:16;;;;;;;;;39.40;39.40;;;;;;;;5255799;28;8772;-77
2022/01/23 18:36:48;;;;;;;;;27.60;26.20;;;;;;;;5239310;28;8890;-76
2022/01/23 18:39:19;;;;;;;;;23.20;21.40;;;;;;;;5239866;28;8784;-78
2022/01/23 18:41:50;;;;;;;;;22.40;22.00;;;;;;;;5244314;28;8796;-79
2022/01/23 18:44:22;;;;;;;;;22.80;19.40;;;;;;;;5243857;28;8865;-78
2022/01/23 18:46:53;;;;;;;;;25.80;24.20;;;;;;;;5255360;28;9517;-76
2022/01/23 18:49:24;;;;;;;;;22.80;22.40;;;;;;;;5289829;28;9451;-79
2022/01/23 18:56:21;;;;;;;;;37.40;33.80;;;;;;;;5289986;28;8705;-78
2022/01/23 18:58:56;;;;;;;;;31.60;31.60;;;;;;;;5255145;28;8769;-81
2022/01/23 19:01:29;;;;;;;;;24.60;24.60;;;;;;;;5255529;28;8776;-81
2022/01/23 19:04:04;;;;;;;;;27.60;27.20;;;;;;;;5272453;28;8826;-79
2022/01/23 19:09:15;;;;;;;;;27.60;26.80;;;;;;;;5255220;28;8914;-77
2022/01/23 19:11:48;;;;;;;;;28.40;26.20;;;;;;;;5272432;28;8784;-78
2022/01/23 19:14:21;;;;;;;;;24.00;24.00;;;;;;;;5238364;28;8803;-77
2022/01/23 19:16:53;;;;;;;;;25.60;25.60;;;;;;;;5271660;28;8902;-79
2022/01/23 19:19:43;;;;;;;;;24.00;23.00;;;;;;;;5257887;28;8791;-78
2022/01/23 19:22:17;;;;;;;;;15.20;15.00;;;;;;;;5238431;28;8788;-79
2022/01/23 19:24:48;;;;;;;;;28.00;25.60;;;;;;;;5237787;28;8804;-77
2022/01/23 19:31:43;;;;;;;;;19.60;19.60;;;;;;;;5289239;28;8748;-78
2022/01/23 19:38:45;;;;;;;;;36.20;30.20;;;;;;;;5289346;28;9499;-77
2022/01/23 19:45:40;;;;;;;;;23.40;23.40;;;;;;;;5289355;28;8827;-75
2022/01/23 19:48:49;;;;;;;;;23.40;23.40;;;;;;;;5254551;28;9483;-75
2022/01/23 19:51:08;;;;;;;;;25.40;23.20;;;;;;;;5251028;28;8951;-75
2022/01/23 19:53:39;;;;;;;;;22.75;22.25;;;;;;;;5237333;28;8899;-75
2022/01/23 19:56:10;;;;;;;;;28.50;26.50;;;;;;;;5253824;28;11389;-76
2022/01/23 19:58:41;;;;;;;;;15.00;15.00;;;;;;;;5237793;28;11523;-77
2022/01/23 20:01:12;;;;;;;;;20.60;20.60;;;;;;;;5237642;28;8799;-74
2022/01/23 20:03:43;;;;;;;;;26.75;25.25;;;;;;;;5270345;28;8835;-73
2022/01/23 20:06:19;;;;;;;;;24.00;22.20;;;;;;;;5237183;28;8776;-73
2022/01/23 20:09:23;;;;;;;;;14.80;10.80;;;;;;;;5253740;28;8764;-73
2022/01/23 20:14:37;;;;;;;;;27.60;23.60;;;;;;;;5288971;28;8765;-73
2022/01/23 20:17:08;;;;;;;;;23.60;23.20;;;;;;;;5237079;28;8780;-73
2022/01/23 20:19:39;;;;;;;;;24.25;21.25;;;;;;;;5253878;28;8775;-73
2022/01/23 20:22:11;;;;;;;;;25.25;22.00;;;;;;;;5236790;28;8764;-73
2022/01/23 20:24:42;;;;;;;;;25.20;25.00;;;;;;;;5236748;28;10188;-72
2022/01/23 20:27:33;;;;;;;;;17.20;17.20;;;;;;;;5289110;28;8783;-74
2022/01/23 20:30:06;;;;;;;;;20.20;19.60;;;;;;;;5270795;28;8776;-72
2022/01/23 20:32:37;;;;;;;;;17.80;17.20;;;;;;;;5237267;28;8785;-73